Time;durP1;ratioP1;P1;durP2;ratioP2;P2;SDS_P1;SDS_P2;PMS_P1;PMS_P2;Temp;Humidity;BMP_temperature;BMP_pressure;BME280_temperature;BME280_humidity;BME280_pressure;Samples;Min_cycle;Max_cycle;Signal;HPM_P1;HPM_P2
2021/12/03 00:00:43;;;;;;;;;;;;;;;;;;;;;
2021/12/03 00:03:47;;;;;;;;;;;;;;;;;;;;;
2021/12/03 00:07:03;;;;;;;7.55;4.30;;;1.70;95.60;;;;;;6247441;23;20083;-88
2021/12/03 00:09:53;;;;;;;;;;;;;;;;;;;;;
2021/12/03 00:16:19;;;;;;;;;;;;;;;;;;;;;
2021/12/03 00:19:10;;;;;;;7.68;4.38;;;1.80;95.70;;;;;;6247459;23;20087;-86
2021/12/03 00:28:08;;;;;;;7.45;4.70;;;1.80;95.70;;;;;;6247480;23;20007;-87
2021/12/03 00:30:37;;;;;;;7.38;4.93;;;1.80;95.70;;;;;;6220781;23;20023;-87
2021/12/03 00:33:31;;;;;;;8.27;4.60;;;1.80;95.70;;;;;;6220254;23;19996;-87
2021/12/03 00:36:23;;;;;;;9.55;4.90;;;1.80;95.80;;;;;;6245389;23;20368;-88
2021/12/03 00:39:22;;;;;;;;;;;;;;;;;;;;;
2021/12/03 00:42:19;;;;;;;8.65;5.55;;;1.90;95.80;;;;;;6247191;22;20129;-88
2021/12/03 00:45:58;;;;;;;;;;;;;;;;;;;;;
2021/12/03 00:48:33;;;;;;;;;;;;;;;;;;;;;
2021/12/03 00:51:26;;;;;;;;;;;;;;;;;;;;;
2021/12/03 00:53:54;;;;;;;10.00;5.03;;;1.80;95.80;;;;;;6243527;23;20008;-87
2021/12/03 00:56:57;;;;;;;7.00;4.57;;;1.80;95.80;;;;;;6270504;23;20484;-87
2021/12/03 00:59:50;;;;;;;7.53;4.65;;;1.90;95.80;;;;;;6269453;23;19984;-87
2021/12/03 01:02:50;;;;;;;7.70;4.38;;;1.90;95.80;;;;;;6263389;23;20007;-87
2021/12/03 01:05:28;;;;;;;6.60;4.70;;;1.90;95.80;;;;;;6179603;23;20091;-87
2021/12/03 01:08:20;;;;;;;7.10;4.47;;;1.90;95.80;;;;;;6245513;23;20004;-87
2021/12/03 01:11:08;;;;;;;;;;;;;;;;;;;;;
2021/12/03 01:14:02;;;;;;;7.70;4.57;;;1.90;95.90;;;;;;6246459;23;20080;-87
2021/12/03 01:16:42;;;;;;;7.68;5.03;;;1.90;95.90;;;;;;6220057;23;20005;-89
2021/12/03 01:19:19;;;;;;;8.43;4.50;;;1.90;95.90;;;;;;6221857;23;20399;-89
2021/12/03 01:21:49;;;;;;;7.20;4.88;;;1.80;95.80;;;;;;6245612;23;20008;-88
2021/12/03 01:24:35;;;;;;;8.43;5.28;;;1.80;95.90;;;;;;6244667;23;20008;-89
2021/12/03 01:27:04;;;;;;;9.23;4.93;;;1.90;95.90;;;;;;6198217;23;20004;-88
2021/12/03 01:29:51;;;;;;;7.78;4.68;;;1.80;96.10;;;;;;6244546;23;20377;-88
2021/12/03 01:32:53;;;;;;;8.23;5.00;;;1.80;95.90;;;;;;6245341;23;19997;-89
2021/12/03 01:35:45;;;;;;;10.48;5.10;;;1.80;95.90;;;;;;6198100;23;20008;-88
2021/12/03 01:38:32;;;;;;;;;;;;;;;;;;;;;
2021/12/03 01:41:06;;;;;;;7.80;5.47;;;1.90;95.90;;;;;;6223268;22;20087;-88
2021/12/03 01:43:44;;;;;;;8.88;5.40;;;1.80;95.90;;;;;;6219749;23;20532;-88
2021/12/03 01:46:26;;;;;;;;;;;;;;;;;;;;;
2021/12/03 01:49:14;;;;;;;10.20;5.53;;;1.80;95.90;;;;;;6248010;23;20083;-87
2021/12/03 01:51:44;;;;;;;9.50;6.50;;;1.90;95.90;;;;;;6224860;23;20418;-87
2021/12/03 01:57:51;;;;;;;;;;;;;;;;;;;;;
2021/12/03 02:00:55;;;;;;;;;;;;;;;;;;;;;
2021/12/03 02:04:10;;;;;;;9.63;5.75;;;1.90;95.90;;;;;;6177210;23;20095;-87
2021/12/03 02:06:43;;;;;;;11.55;6.05;;;1.90;95.90;;;;;;6247586;23;20019;-88
2021/12/03 02:09:24;;;;;;;9.45;6.03;;;1.90;95.90;;;;;;6221819;23;20008;-88
2021/12/03 02:12:01;;;;;;;9.13;6.60;;;1.90;95.90;;;;;;6247668;23;20008;-87
2021/12/03 02:14:35;;;;;;;10.10;6.60;;;1.90;96.00;;;;;;6223888;23;20008;-87
2021/12/03 02:18:08;;;;;;;;;;;;;;;;;;;;;
2021/12/03 02:20:29;;;;;;;;;;;1.90;96.00;;;;;;6267463;22;20012;-90
2021/12/03 02:22:58;;;;;;;10.35;7.13;;;1.90;96.00;;;;;;6273131;23;19900;-88
2021/12/03 02:31:53;;;;;;;10.27;7.18;;;2.00;96.00;;;;;;6247985;23;20038;-89
2021/12/03 02:34:19;;;;;;;10.57;7.05;;;2.00;96.00;;;;;;6246904;23;20000;-88
2021/12/03 02:37:42;;;;;;;;;;;;;;;;;;;;;
2021/12/03 02:40:27;;;;;;;10.88;7.40;;;2.00;96.10;;;;;;6213403;23;20023;-88
2021/12/03 02:43:08;;;;;;;;;;;;;;;;;;;;;
2021/12/03 02:45:57;;;;;;;;;;;;;;;;;;;;;
2021/12/03 02:54:33;;;;;;;11.55;6.75;;;2.20;96.10;;;;;;6214422;23;20091;-87
2021/12/03 03:00:07;;;;;;;10.15;7.10;;;2.20;96.10;;;;;;6225158;23;20020;-89
2021/12/03 03:02:55;;;;;;;;;;;;;;;;;;;;;
2021/12/03 03:05:32;;;;;;;10.95;7.38;;;2.20;96.20;;;;;;6247618;23;20393;-88
2021/12/03 03:08:29;;;;;;;9.95;7.47;;;2.20;96.20;;;;;;6246025;23;20460;-87
2021/12/03 03:14:52;;;;;;;;;;;;;;;;;;;;;
2021/12/03 03:17:12;;;;;;;10.82;7.45;;;2.20;96.20;;;;;;6219890;23;20004;-88
2021/12/03 03:20:19;;;;;;;11.32;7.60;;;2.30;96.30;;;;;;6246040;23;20026;-87
2021/12/03 03:23:04;;;;;;;;;;;;;;;;;;;;;
2021/12/03 03:25:49;;;;;;;10.48;7.90;;;2.30;96.20;;;;;;6247407;23;20067;-87
2021/12/03 03:28:57;;;;;;;;;;;;;;;;;;;;;
2021/12/03 03:34:54;;;;;;;10.18;8.07;;;2.40;96.20;;;;;;6220542;23;20369;-88
2021/12/03 03:37:41;;;;;;;12.02;8.23;;;2.40;96.20;;;;;;6246968;23;20004;-88
2021/12/03 03:40:24;;;;;;;14.50;9.85;;;2.40;96.20;;;;;;6228199;23;20012;-87
2021/12/03 03:43:17;;;;;;;13.57;9.23;;;2.40;96.20;;;;;;6250888;22;20019;-87
2021/12/03 03:46:07;;;;;;;;;;;;;;;;;;;;;
2021/12/03 03:48:41;;;;;;;13.17;8.77;;;2.50;96.20;;;;;;6264192;23;20000;-87
2021/12/03 03:51:37;;;;;;;13.55;10.10;;;2.40;96.20;;;;;;6246801;23;20238;-87
2021/12/03 03:54:29;;;;;;;11.93;9.10;;;2.50;96.20;;;;;;6196388;23;20004;-87
2021/12/03 03:59:54;;;;;;;;;;;;;;;;;;;;;
2021/12/03 04:02:37;;;;;;;16.73;11.20;;;2.50;96.20;;;;;;6247231;23;20071;-88
2021/12/03 04:05:43;;;;;;;;;;;;;;;;;;;;;
2021/12/03 04:08:29;;;;;;;15.77;12.18;;;2.50;96.20;;;;;;6241151;23;20403;-87
2021/12/03 04:10:51;;;;;;;20.02;13.80;;;2.60;96.50;;;;;;6218439;23;20051;-88
2021/12/03 04:13:48;;;;;;;;;;;;;;;;;;;;;
2021/12/03 04:16:26;;;;;;;21.00;13.98;;;2.60;96.20;;;;;;6239644;23;20007;-88
2021/12/03 04:19:33;;;;;;;;;;;;;;;;;;;;;
2021/12/03 04:22:08;;;;;;;21.38;15.75;;;2.60;96.20;;;;;;6228981;23;20370;-87
2021/12/03 04:27:56;;;;;;;28.70;18.58;;;2.60;96.20;;;;;;6246127;23;20004;-88
2021/12/03 04:30:37;;;;;;;28.27;19.20;;;2.60;96.20;;;;;;6245437;23;20004;-88
2021/12/03 04:33:29;;;;;;;;;;;;;;;;;;;;;
2021/12/03 04:36:06;;;;;;;33.30;20.83;;;2.60;96.30;;;;;;6247107;23;20075;-88
2021/12/03 04:38:44;;;;;;;30.20;20.73;;;2.60;96.30;;;;;;6245540;23;20083;-89
2021/12/03 04:41:19;;;;;;;36.40;21.75;;;2.70;96.30;;;;;;6245194;22;20515;-88
2021/12/03 04:44:17;;;;;;;37.30;23.17;;;2.70;96.30;;;;;;6196553;23;20000;-87
2021/12/03 04:47:33;;;;;;;36.92;22.33;;;2.70;96.30;;;;;;6210465;23;20311;-87
2021/12/03 04:50:01;;;;;;;34.88;21.23;;;2.70;96.30;;;;;;6214304;23;20012;-88
2021/12/03 04:52:47;;;;;;;39.08;22.52;;;2.70;96.30;;;;;;6245577;23;20006;-87
2021/12/03 04:55:26;;;;;;;44.10;25.95;;;2.80;96.30;;;;;;6224172;23;20036;-87
2021/12/03 04:58:44;;;;;;;44.90;25.17;;;2.80;96.30;;;;;;6243932;23;20024;-87
2021/12/03 05:05:05;;;;;;;;;;;;;;;;;;;;;
2021/12/03 05:08:10;;;;;;;46.53;25.48;;;2.80;96.40;;;;;;6272549;22;20008;-88
2021/12/03 05:11:16;;;;;;;;;;;;;;;;;;;;;
2021/12/03 05:13:49;;;;;;;;;;;;;;;;;;;;;
2021/12/03 05:16:48;;;;;;;51.60;28.13;;;2.90;96.30;;;;;;6247048;23;20097;-88
2021/12/03 05:19:44;;;;;;;54.83;29.52;;;2.90;96.40;;;;;;6244298;23;20004;-88
2021/12/03 05:22:37;;;;;;;53.10;27.73;;;2.90;96.30;;;;;;6198571;23;20009;-88
2021/12/03 05:25:13;;;;;;;52.65;27.23;;;2.90;96.40;;;;;;6221354;23;20004;-88
2021/12/03 05:27:54;;;;;;;52.35;28.02;;;3.00;96.40;;;;;;6247225;23;19997;-88
2021/12/03 05:30:38;;;;;;;50.50;27.25;;;3.00;96.40;;;;;;6245337;23;20016;-87
2021/12/03 05:33:19;;;;;;;56.92;29.60;;;3.00;96.40;;;;;;6247280;23;20050;-89
2021/12/03 05:36:25;;;;;;;;;;;;;;;;;;;;;
2021/12/03 05:39:14;;;;;;;50.22;28.85;;;3.00;96.40;;;;;;6248109;23;20083;-87
2021/12/03 05:41:53;;;;;;;;;;;;;;;;;;;;;
2021/12/03 05:44:30;;;;;;;54.30;29.98;;;3.10;96.50;;;;;;6248437;23;20393;-88
2021/12/03 05:47:30;;;;;;;51.95;29.95;;;3.10;96.50;;;;;;6246295;23;20004;-89
2021/12/03 05:50:33;;;;;;;;;;;;;;;;;;;;;
2021/12/03 05:53:32;;;;;;;53.10;30.25;;;3.20;96.50;;;;;;6247900;23;20474;-87
2021/12/03 05:56:32;;;;;;;61.35;33.53;;;3.20;96.50;;;;;;6196555;23;20008;-88
2021/12/03 05:59:03;;;;;;;51.97;30.48;;;3.20;96.50;;;;;;6218624;23;20019;-88
2021/12/03 06:01:45;;;;;;;;;;;;;;;;;;;;;
2021/12/03 06:04:20;;;;;;;54.22;30.70;;;3.20;96.50;;;;;;6248247;23;20083;-88
2021/12/03 06:07:20;;;;;;;;;;;;;;;;;;;;;
2021/12/03 06:09:53;;;;;;;57.40;32.05;;;3.30;96.50;;;;;;6247983;23;20094;-88
2021/12/03 06:12:57;;;;;;;57.88;32.42;;;3.30;96.50;;;;;;6221581;23;20000;-87
2021/12/03 06:16:01;;;;;;;;;;;;;;;;;;;;;
2021/12/03 06:18:31;;;;;;;55.03;31.75;;;3.40;96.50;;;;;;6249277;23;20077;-89
2021/12/03 06:21:35;;;;;;;58.93;30.70;;;3.40;96.50;;;;;;6223960;23;20020;-87
2021/12/03 06:24:19;;;;;;;;;;;;;;;;;;;;;
2021/12/03 06:27:15;;;;;;;;;;;;;;;;;;;;;
2021/12/03 06:30:24;;;;;;;;;;;;;;;;;;;;;
2021/12/03 06:33:02;;;;;;;61.33;30.50;;;3.40;96.50;;;;;;6273887;22;20004;-88
2021/12/03 06:35:38;;;;;;;;;;;;;;;;;;;;;
2021/12/03 06:39:21;;;;;;;53.05;29.63;;;3.50;96.50;;;;;;6259964;23;20008;-90
2021/12/03 06:45:07;;;;;;;;;;;;;;;;;;;;;
2021/12/03 06:52:02;;;;;;;;;;;;;;;;;;;;;
2021/12/03 06:58:49;;;;;;;;;;;;;;;;;;;;;
2021/12/03 07:01:34;;;;;;;46.03;25.05;;;3.60;96.40;;;;;;6203479;23;20019;-89
2021/12/03 07:04:13;;;;;;;45.58;23.80;;;3.60;96.30;;;;;;6220629;23;20000;-88
2021/12/03 07:06:49;;;;;;;42.78;24.48;;;3.60;96.30;;;;;;6246050;23;20000;-88
2021/12/03 07:09:45;;;;;;;41.17;23.42;;;3.60;96.30;;;;;;6246376;23;20024;-87
2021/12/03 07:12:37;;;;;;;43.65;21.83;;;3.70;96.40;;;;;;6220887;23;20050;-88
2021/12/03 07:15:06;;;;;;;;;;;3.60;96.30;;;;;;6246700;23;20065;-86
2021/12/03 07:18:35;;;;;;;;;;;;;;;;;;;;;
2021/12/03 07:21:57;;;;;;;;;;;;;;;;;;;;;
2021/12/03 07:27:29;;;;;;;33.22;17.77;;;3.60;96.30;;;;;;6226349;23;20011;-89
2021/12/03 07:30:31;;;;;;;35.50;17.90;;;3.70;96.40;;;;;;6222789;23;20074;-89
2021/12/03 07:33:20;;;;;;;29.90;16.17;;;3.70;96.40;;;;;;6245943;23;20004;-89
2021/12/03 07:35:49;;;;;;;29.73;15.27;;;3.70;96.30;;;;;;6199284;23;20004;-90
2021/12/03 07:39:14;;;;;;;;;;;;;;;;;;;;;
2021/12/03 07:41:43;;;;;;;35.17;18.55;;;3.70;96.30;;;;;;6238527;22;20083;-87
2021/12/03 07:45:35;;;;;;;27.95;15.82;;;3.70;96.30;;;;;;6221616;23;20011;-88
2021/12/03 07:52:03;;;;;;;;;;;;;;;;;;;;;
2021/12/03 07:55:05;;;;;;;24.75;11.27;;;3.70;96.10;;;;;;6260359;23;20000;-91
2021/12/03 07:58:10;;;;;;;;;;;;;;;;;;;;;
2021/12/03 08:00:49;;;;;;;18.70;9.38;;;3.80;96.00;;;;;;6270445;23;20011;-87
2021/12/03 08:04:04;;;;;;;20.98;9.20;;;3.80;96.00;;;;;;6231858;23;20024;-88
2021/12/03 08:07:12;;;;;;;;;;;;;;;;;;;;;
2021/12/03 08:28:15;;;;;;;;;;;;;;;;;;;;;
2021/12/03 08:41:27;;;;;;;;;;;;;;;;;;;;;
2021/12/03 08:47:51;;;;;;;15.88;6.00;;;3.80;95.30;;;;;;6065258;23;20007;-88
2021/12/03 08:58:17;;;;;;;;;;;;;;;;;;;;;
2021/12/03 09:00:53;;;;;;;12.55;6.45;;;3.90;95.10;;;;;;6106627;23;20109;-90
2021/12/03 09:04:15;;;;;;;;;;;;;;;;;;;;;
2021/12/03 09:26:02;;;;;;;;;;;;;;;;;;;;;
2021/12/03 09:29:22;;;;;;;;;;;;;;;;;;;;;
2021/12/03 09:35:36;;;;;;;13.65;5.22;;;4.10;94.90;;;;;;5981285;23;20383;-89
2021/12/03 09:41:41;;;;;;;10.75;5.03;;;4.10;94.60;;;;;;5966775;23;20030;-88
2021/12/03 09:48:28;;;;;;;;;;;;;;;;;;;;;
2021/12/03 09:51:02;;;;;;;;;;;;;;;;;;;;;
2021/12/03 09:57:08;;;;;;;10.38;4.53;;;4.20;94.70;;;;;;6095967;23;20028;-90
2021/12/03 10:18:29;;;;;;;;;;;;;;;;;;;;;
2021/12/03 10:57:33;;;;;;;;;;;;;;;;;;;;;
2021/12/03 11:57:27;;;;;;;;;;;;;;;;;;;;;
2021/12/03 13:11:51;;;;;;;10.57;4.35;;;5.50;93.50;;;;;;6217196;23;20401;-88
2021/12/03 13:17:59;;;;;;;9.90;4.00;;;5.60;93.40;;;;;;6217048;23;20083;-89
2021/12/03 13:58:50;;;;;;;7.50;3.28;;;5.60;92.70;;;;;;6249319;23;20031;-88
2021/12/03 14:07:30;;;;;;;5.78;3.00;;;5.50;92.80;;;;;;6247619;23;20054;-89
2021/12/03 15:09:29;;;;;;;;;;;;;;;;;;;;;
2021/12/03 16:10:04;;;;;;;;;;;;;;;;;;;;;
2021/12/03 16:19:59;;;;;;;;;;;;;;;;;;;;;
2021/12/03 17:25:33;;;;;;;3.42;3.13;;;5.40;96.20;;;;;;6126583;23;20012;-88
2021/12/03 17:53:01;;;;;;;3.03;2.78;;;5.50;96.30;;;;;;6228933;23;20052;-88
2021/12/03 18:52:02;;;;;;;;;;;;;;;;;;;;;
2021/12/03 18:53:59;;;;;;;5.35;4.95;;;5.70;96.30;;;;;;6220377;23;20426;-87
2021/12/03 18:56:42;;;;;;;5.57;5.13;;;5.70;96.20;;;;;;6223277;23;20146;-87
2021/12/03 18:59:14;;;;;;;5.78;5.18;;;5.70;96.20;;;;;;6222329;23;20004;-88
2021/12/03 19:01:59;;;;;;;;;;;;;;;;;;;;;
2021/12/03 19:05:08;;;;;;;5.50;5.00;;;5.70;96.20;;;;;;6223296;23;20079;-87
2021/12/03 19:08:15;;;;;;;5.68;5.15;;;5.70;96.20;;;;;;6226870;23;20035;-88
2021/12/03 19:10:50;;;;;;;5.85;5.35;;;5.70;96.20;;;;;;6245898;23;20332;-88
2021/12/03 19:13:37;;;;;;;;;;;;;;;;;;;;;
2021/12/03 19:16:30;;;;;;;5.68;5.03;;;5.70;96.20;;;;;;6222834;23;20083;-88
2021/12/03 19:19:15;;;;;;;;;;;;;;;;;;;;;
2021/12/03 19:21:53;;;;;;;5.03;4.60;;;5.70;96.10;;;;;;6222814;23;20079;-88
2021/12/03 19:24:28;;;;;;;4.70;4.30;;;5.70;96.20;;;;;;6222378;23;20369;-88
2021/12/03 19:27:02;;;;;;;5.22;4.72;;;5.70;96.20;;;;;;6246178;23;20430;-89
2021/12/03 19:29:42;;;;;;;;;;;;;;;;;;;;;
2021/12/03 19:32:13;;;;;;;5.38;4.88;;;5.70;96.20;;;;;;6254353;23;20048;-89
2021/12/03 19:35:19;;;;;;;5.30;4.72;;;5.70;96.30;;;;;;6273990;22;20032;-88
2021/12/03 19:37:49;;;;;;;4.68;4.28;;;5.70;96.30;;;;;;6274142;22;19995;-87
2021/12/03 19:40:24;;;;;;;5.13;4.63;;;5.70;96.30;;;;;;6273229;22;19981;-88
2021/12/03 19:43:02;;;;;;;5.45;4.57;;;5.70;96.30;;;;;;6247674;23;20027;-87
2021/12/03 19:45:37;;;;;;;4.80;4.40;;;5.70;96.30;;;;;;6221380;23;20008;-88
2021/12/03 19:48:12;;;;;;;4.80;4.32;;;5.70;96.30;;;;;;6220536;23;20083;-89
2021/12/03 19:53:27;;;;;;;4.82;4.30;;;5.80;96.40;;;;;;6218399;22;20017;-89
2021/12/03 19:56:24;;;;;;;5.63;4.60;;;5.80;96.40;;;;;;6216613;23;20043;-89
2021/12/03 19:58:58;;;;;;;4.65;4.25;;;5.80;96.40;;;;;;6215369;23;20005;-87
2021/12/03 20:02:06;;;;;;;5.00;4.60;;;5.80;96.40;;;;;;6186797;23;20392;-93
2021/12/03 20:04:45;;;;;;;5.10;4.60;;;5.70;96.40;;;;;;6190796;23;20004;-89
2021/12/03 20:07:41;;;;;;;;;;;;;;;;;;;;;
2021/12/03 20:10:23;;;;;;;4.97;4.57;;;5.70;96.50;;;;;;6216171;23;20095;-90
2021/12/03 20:13:04;;;;;;;6.20;4.50;;;5.70;96.50;;;;;;6192477;23;20009;-89
2021/12/03 20:15:42;;;;;;;;;;;;;;;;;;;;;
2021/12/03 20:18:36;;;;;;;6.50;5.05;;;5.70;96.50;;;;;;6215100;23;20071;-90
2021/12/03 20:21:13;;;;;;;5.47;4.97;;;5.70;96.50;;;;;;6215013;23;20327;-87
2021/12/03 20:23:55;;;;;;;5.70;5.20;;;5.70;96.50;;;;;;6214935;23;20004;-89
2021/12/03 20:26:35;;;;;;;5.57;5.07;;;5.70;96.60;;;;;;6193424;23;20015;-89
2021/12/03 20:29:43;;;;;;;5.68;5.18;;;5.70;96.60;;;;;;6187761;23;20009;-89
2021/12/03 20:38:30;;;;;;;5.50;4.82;;;5.80;96.60;;;;;;6208941;23;20001;-89
2021/12/03 20:41:25;;;;;;;;;;;;;;;;;;;;;
2021/12/03 20:46:51;;;;;;;6.38;5.78;;;5.80;96.50;;;;;;6194289;23;20096;-89
2021/12/03 20:52:13;;;;;;;5.57;5.07;;;5.80;96.50;;;;;;6192011;23;20034;-88
2021/12/03 21:08:52;;;;;;;5.65;5.05;;;5.80;96.60;;;;;;6221140;22;20031;-89
2021/12/03 21:11:42;;;;;;;5.25;4.75;;;5.80;96.60;;;;;;6176646;23;20457;-88
2021/12/03 21:14:16;;;;;;;5.43;4.97;;;5.80;96.60;;;;;;6194927;23;20438;-88
2021/12/03 21:22:23;;;;;;;5.90;5.30;;;5.90;96.60;;;;;;6216158;23;20005;-88
2021/12/03 21:24:57;;;;;;;5.47;4.97;;;5.80;96.60;;;;;;6214823;23;20430;-88
2021/12/03 21:27:33;;;;;;;6.13;5.53;;;5.90;96.60;;;;;;6216018;23;20000;-88
2021/12/03 21:32:53;;;;;;;5.60;4.95;;;5.90;96.60;;;;;;6225969;23;20004;-88
2021/12/03 21:43:51;;;;;;;6.03;4.75;;;5.90;96.50;;;;;;6215932;23;20039;-88
2021/12/03 21:46:30;;;;;;;6.10;5.50;;;5.90;96.50;;;;;;6190135;23;20011;-87
2021/12/03 21:49:05;;;;;;;5.40;4.90;;;5.90;96.50;;;;;;6214450;23;20009;-86
2021/12/03 21:51:35;;;;;;;6.13;5.60;;;5.90;96.50;;;;;;6188219;22;20077;-86
2021/12/03 21:54:07;;;;;;;6.03;5.35;;;5.90;96.50;;;;;;6164894;23;20431;-86
2021/12/03 21:56:42;;;;;;;;;;;;;;;;;;;;;
2021/12/03 21:59:13;;;;;;;5.75;5.25;;;5.90;96.50;;;;;;6215456;23;20462;-87
2021/12/03 22:02:19;;;;;;;5.63;5.13;;;5.90;96.50;;;;;;6164157;23;20009;-88
2021/12/03 22:05:10;;;;;;;6.00;5.40;;;5.90;96.80;;;;;;6193413;23;20011;-86
2021/12/03 22:08:34;;;;;;;5.55;5.05;;;5.90;96.50;;;;;;6192596;23;20024;-89
2021/12/03 22:11:07;;;;;;;5.07;4.65;;;5.90;96.60;;;;;;6190710;23;20005;-89
2021/12/03 22:14:14;;;;;;;5.32;4.82;;;5.90;96.50;;;;;;6191593;23;20430;-88
2021/12/03 22:16:46;;;;;;;5.43;4.95;;;5.90;96.50;;;;;;6189551;23;20000;-88
2021/12/03 22:19:34;;;;;;;;;;;5.90;96.50;;;;;;6192520;23;20438;-88
2021/12/03 22:22:35;;;;;;;;;;;;;;;;;;;;;
2021/12/03 22:28:24;;;;;;;;;;;;;;;;;;;;;
2021/12/03 22:31:19;;;;;;;4.40;4.00;;;5.90;96.50;;;;;;6226934;23;20040;-89
2021/12/03 22:34:05;;;;;;;;;;;;;;;;;;;;;
2021/12/03 22:36:55;;;;;;;4.00;3.63;;;5.90;96.50;;;;;;6243966;22;19984;-91
2021/12/03 22:39:52;;;;;;;4.32;3.28;;;5.90;96.50;;;;;;6212745;23;20039;-90
2021/12/03 22:42:51;;;;;;;3.75;3.45;;;5.90;96.50;;;;;;6173254;23;20008;-89
2021/12/03 22:54:17;;;;;;;3.55;3.08;;;5.90;96.60;;;;;;6190003;23;20107;-90
2021/12/03 22:57:02;;;;;;;3.08;2.78;;;5.80;96.50;;;;;;6216165;23;20007;-90
2021/12/03 22:59:38;;;;;;;3.08;2.78;;;5.90;96.50;;;;;;6216154;23;20005;-89
2021/12/03 23:02:32;;;;;;;3.13;2.90;;;5.90;96.50;;;;;;6216530;23;20106;-90
2021/12/03 23:05:38;;;;;;;3.10;2.90;;;5.90;96.50;;;;;;6189505;23;20015;-90
2021/12/03 23:08:27;;;;;;;2.88;2.67;;;5.90;96.50;;;;;;6171993;23;20009;-89
2021/12/03 23:11:00;;;;;;;2.97;2.70;;;5.90;96.50;;;;;;6166872;23;20029;-90
2021/12/03 23:14:17;;;;;;;4.25;3.00;;;5.90;96.50;;;;;;6216072;23;20001;-91
2021/12/03 23:16:48;;;;;;;2.50;2.30;;;5.90;96.60;;;;;;6199171;23;20382;-88
2021/12/03 23:19:35;;;;;;;2.60;2.40;;;5.80;96.60;;;;;;6215820;23;19997;-89
2021/12/03 23:22:09;;;;;;;2.97;2.67;;;5.90;96.60;;;;;;6215978;23;20012;-89
2021/12/03 23:25:03;;;;;;;3.25;2.90;;;5.80;96.60;;;;;;6192229;23;20419;-90
2021/12/03 23:27:38;;;;;;;3.35;3.05;;;5.90;96.60;;;;;;6208903;23;20005;-90
2021/12/03 23:30:18;;;;;;;3.30;2.85;;;5.90;96.60;;;;;;6214802;23;20019;-91
2021/12/03 23:33:13;;;;;;;;;;;;;;;;;;;;;
2021/12/03 23:36:01;;;;;;;;;;;;;;;;;;;;;
2021/12/03 23:39:04;;;;;;;3.30;2.92;;;5.90;96.60;;;;;;6193244;23;20087;-91
2021/12/03 23:41:54;;;;;;;3.20;3.00;;;5.90;96.60;;;;;;6194285;23;20091;-90
2021/12/03 23:44:43;;;;;;;4.18;3.78;;;5.90;96.60;;;;;;6216107;23;20051;-88
2021/12/03 23:50:39;;;;;;;;;;;;;;;;;;;;;
2021/12/03 23:53:15;;;;;;;5.47;4.15;;;5.90;96.60;;;;;;6217585;23;20083;-87
2021/12/03 23:55:51;;;;;;;;;;;;;;;;;;;;;
2021/12/03 23:58:40;;;;;;;5.00;4.50;;;5.90;96.60;;;;;;6217942;23;20061;-88
